createdAt,value
2017-02-24T00:00:55.573Z,-2.32
2017-02-24T00:01:55.527Z,-2.28
2017-02-24T00:02:55.516Z,-2.35
2017-02-24T00:03:55.486Z,-2.5
2017-02-24T00:04:55.467Z,-2.41
2017-02-24T00:05:55.449Z,-2.29
2017-02-24T00:06:55.433Z,-2.18
2017-02-24T00:08:08.822Z,-2.08
2017-02-24T00:08:55.398Z,-1.89
2017-02-24T00:09:55.367Z,-2.1
2017-02-24T00:10:55.369Z,-2.07
2017-02-24T00:11:55.352Z,-2.1
2017-02-24T00:12:55.314Z,-2.06
2017-02-24T00:13:55.499Z,-2.01
2017-02-24T00:14:55.295Z,-2.04
2017-02-24T00:15:55.279Z,-1.92
2017-02-24T00:16:55.256Z,-1.9
2017-02-24T00:17:55.234Z,-1.92
2017-02-24T00:18:55.445Z,-1.88
2017-02-24T00:19:55.195Z,-1.9
2017-02-24T00:20:55.193Z,-1.93
2017-02-24T00:21:55.166Z,-1.92
2017-02-24T00:22:55.159Z,-1.75
2017-02-24T00:23:55.133Z,-1.8
2017-02-24T00:24:55.107Z,-1.86
2017-02-24T00:25:55.084Z,-2.07
2017-02-24T00:26:55.059Z,-1.89
2017-02-24T00:27:55.021Z,-1.93
2017-02-24T00:28:55.030Z,-1.89
2017-02-24T00:29:54.997Z,-1.96
2017-02-24T00:30:54.978Z,-1.92
2017-02-24T00:31:54.965Z,-2.01
2017-02-24T00:32:54.955Z,-2.06
2017-02-24T00:33:54.912Z,-1.95
2017-02-24T00:34:54.906Z,-2.06
2017-02-24T00:35:54.878Z,-2.03
2017-02-24T00:36:54.883Z,-2
2017-02-24T00:37:54.848Z,-1.89
2017-02-24T00:38:54.831Z,-1.92
2017-02-24T00:39:54.822Z,-1.93
2017-02-24T00:40:54.786Z,-2.03
2017-02-24T00:41:54.763Z,-2.04
2017-02-24T00:42:54.748Z,-2.16
2017-02-24T00:43:54.718Z,-2.32
2017-02-24T00:44:54.712Z,-2.37
2017-02-24T00:45:54.712Z,-2.35
2017-02-24T00:46:54.684Z,-2.32
2017-02-24T00:47:54.861Z,-2.43
2017-02-24T00:48:54.663Z,-2.43
2017-02-24T00:49:54.636Z,-2.33
2017-02-24T00:50:54.603Z,-2.33
2017-02-24T00:51:54.602Z,-2.25
2017-02-24T00:52:54.563Z,-2.29
2017-02-24T00:53:54.564Z,-2.29
2017-02-24T00:54:54.546Z,-2.22
2017-02-24T00:55:54.511Z,-2.37
2017-02-24T00:56:54.485Z,-2.41
2017-02-24T00:57:54.483Z,-2.48
2017-02-24T00:58:54.438Z,-2.41
2017-02-24T00:59:54.434Z,-2.4
2017-02-24T01:00:54.430Z,-2.33
2017-02-24T01:01:54.386Z,-2.4
2017-02-24T01:02:54.370Z,-2.33
2017-02-24T01:03:54.356Z,-2.43
2017-02-24T01:04:54.344Z,-2.48
2017-02-24T01:05:54.311Z,-2.44
2017-02-24T01:06:54.293Z,-2.47
2017-02-24T01:07:54.278Z,-2.46
2017-02-24T01:08:54.273Z,-2.46
2017-02-24T01:09:54.248Z,-2.47
2017-02-24T01:10:54.217Z,-2.53
2017-02-24T01:11:54.213Z,-2.48
2017-02-24T01:12:54.198Z,-2.38
2017-02-24T01:13:54.144Z,-2.44
2017-02-24T01:14:54.146Z,-2.51
2017-02-24T01:15:54.140Z,-2.53
2017-02-24T01:16:54.171Z,-2.58
2017-02-24T01:17:54.107Z,-2.65
2017-02-24T01:18:54.049Z,-2.69
2017-02-24T01:19:54.042Z,-2.68
2017-02-24T01:20:54.027Z,-2.66
2017-02-24T01:21:54.004Z,-2.64
2017-02-24T01:22:54.012Z,-2.69
2017-02-24T01:23:53.984Z,-2.72
2017-02-24T01:24:53.949Z,-2.76
2017-02-24T01:25:53.951Z,-2.71
2017-02-24T01:26:53.907Z,-2.76
2017-02-24T01:27:53.921Z,-2.76
2017-02-24T01:28:53.870Z,-2.66
2017-02-24T01:29:53.835Z,-2.68
2017-02-24T01:30:53.847Z,-2.83
2017-02-24T01:31:53.810Z,-2.77
2017-02-24T01:32:53.788Z,-2.82
2017-02-24T01:33:53.787Z,-2.72
2017-02-24T01:34:53.744Z,-2.84
2017-02-24T01:35:53.728Z,-2.86
2017-02-24T01:36:53.703Z,-2.9
2017-02-24T01:37:53.692Z,-2.84
2017-02-24T01:38:53.685Z,-2.74
2017-02-24T01:39:53.677Z,-2.77
2017-02-24T01:40:53.660Z,-2.94
2017-02-24T01:41:53.614Z,-3
2017-02-24T01:42:53.613Z,-3.07
2017-02-24T01:43:53.580Z,-3.08
2017-02-24T01:44:53.562Z,-3
2017-02-24T01:45:53.540Z,-2.97
2017-02-24T01:46:53.529Z,-3.13
2017-02-24T01:47:53.503Z,-3.1
2017-02-24T01:48:53.484Z,-2.98
2017-02-24T01:49:53.495Z,-3.02
2017-02-24T01:50:53.453Z,-3.01
2017-02-24T01:51:53.444Z,-3.02
2017-02-24T01:52:53.411Z,-3.1
2017-02-24T01:53:53.386Z,-3.15
2017-02-24T01:54:53.368Z,-3.08
2017-02-24T01:55:53.336Z,-3.18
2017-02-24T01:56:53.379Z,-3.18
2017-02-24T01:57:53.323Z,-3.18
2017-02-24T01:58:53.299Z,-3.13
2017-02-24T01:59:53.261Z,-3.12
2017-02-24T02:00:53.253Z,-3.15
2017-02-24T02:01:53.243Z,-3.28
2017-02-24T02:02:53.218Z,-3.31
2017-02-24T02:03:53.176Z,-3.26
2017-02-24T02:04:53.151Z,-3.26
2017-02-24T02:05:53.175Z,-3.43
2017-02-24T02:06:53.153Z,-3.46
2017-02-24T02:07:53.120Z,-3.34
2017-02-24T02:08:53.157Z,-3.57
2017-02-24T02:09:53.074Z,-3.72
2017-02-24T02:10:53.052Z,-3.84
2017-02-24T02:11:53.036Z,-3.89
2017-02-24T02:12:53.024Z,-3.94
2017-02-24T02:13:53.005Z,-4.02
2017-02-24T02:14:52.984Z,-4.13
2017-02-24T02:15:52.948Z,-4.16
2017-02-24T02:16:52.940Z,-4.06
2017-02-24T02:17:52.910Z,-4.17
2017-02-24T02:18:52.889Z,-4.2
2017-02-24T02:19:52.869Z,-4.27
2017-02-24T02:20:52.839Z,-4.33
2017-02-24T02:21:52.449Z,-4.27
2017-02-24T02:22:52.810Z,-4.2
2017-02-24T02:23:52.781Z,-4.19
2017-02-24T02:24:52.756Z,-4.2
2017-02-24T02:25:52.756Z,-4.17
2017-02-24T02:26:52.716Z,-4.13
2017-02-24T02:27:52.696Z,-4.12
2017-02-24T02:28:52.698Z,-4.07
2017-02-24T02:29:52.642Z,-4.01
2017-02-24T02:30:52.648Z,-3.98
2017-02-24T02:31:52.623Z,-4.09
2017-02-24T02:32:52.593Z,-4.01
2017-02-24T02:33:52.587Z,-4.13
2017-02-24T02:34:52.563Z,-4.23
2017-02-24T02:35:52.547Z,-4.15
2017-02-24T02:36:52.531Z,-4.04
2017-02-24T02:37:52.501Z,-3.98
2017-02-24T02:38:52.099Z,-3.98
2017-02-24T02:39:52.449Z,-3.94
2017-02-24T02:40:52.445Z,-3.99
2017-02-24T02:41:52.431Z,-3.86
2017-02-24T02:42:52.396Z,-4.09
2017-02-24T02:43:52.356Z,-3.98
2017-02-24T02:44:52.358Z,-3.95
2017-02-24T02:45:52.363Z,-3.97
2017-02-24T02:46:51.922Z,-4.02
2017-02-24T02:47:52.274Z,-4.15
2017-02-24T02:48:52.265Z,-4.19
2017-02-24T02:49:51.858Z,-4.23
2017-02-24T02:50:52.254Z,-4.17
2017-02-24T02:51:52.215Z,-4.2
2017-02-24T02:52:52.224Z,-4.19
2017-02-24T02:53:52.176Z,-4.17
2017-02-24T02:54:52.138Z,-4.17
2017-02-24T02:55:52.127Z,-4.22
2017-02-24T02:56:52.128Z,-4.23
2017-02-24T02:57:52.097Z,-4.27
2017-02-24T02:58:52.072Z,-4.2
2017-02-24T02:59:52.033Z,-4.23
2017-02-24T03:00:52.036Z,-4.28
2017-02-24T03:01:51.998Z,-4.22
2017-02-24T03:02:52.022Z,-4.15
2017-02-24T03:03:51.975Z,-4.15
2017-02-24T03:04:51.940Z,-4.1
2017-02-24T03:05:51.918Z,-4.15
2017-02-24T03:06:51.905Z,-4.13
2017-02-24T03:07:51.882Z,-4.12
2017-02-24T03:08:51.873Z,-4.23
2017-02-24T03:09:51.869Z,-4.16
2017-02-24T03:10:51.821Z,-4.31
2017-02-24T03:11:51.802Z,-4.3
2017-02-24T03:12:51.760Z,-4.23
2017-02-24T03:13:51.774Z,-4.3
2017-02-24T03:14:51.727Z,-4.27
2017-02-24T03:15:51.709Z,-4.27
2017-02-24T03:16:51.688Z,-4.31
2017-02-24T03:17:51.679Z,-4.31
2017-02-24T03:18:51.644Z,-4.31
2017-02-24T03:19:51.628Z,-4.28
2017-02-24T03:20:51.619Z,-4.28
2017-02-24T03:21:51.635Z,-4.3
2017-02-24T03:22:51.562Z,-4.31
2017-02-24T03:23:51.549Z,-4.3
2017-02-24T03:24:51.131Z,-4.37
2017-02-24T03:25:51.500Z,-4.26
2017-02-24T03:26:51.492Z,-4.19
2017-02-24T03:27:51.473Z,-4.33
2017-02-24T03:28:51.439Z,-4.33
2017-02-24T03:29:51.422Z,-4.38
2017-02-24T03:30:51.392Z,-4.27
2017-02-24T03:31:51.390Z,-4.16
2017-02-24T03:32:51.355Z,-4.16
2017-02-24T03:33:51.336Z,-4.23
2017-02-24T03:34:51.312Z,-4.2
2017-02-24T03:35:51.337Z,-4.16
2017-02-24T03:36:51.274Z,-4.22
2017-02-24T03:37:51.301Z,-4.13
2017-02-24T03:38:51.239Z,-4.23
2017-02-24T03:39:50.837Z,-4.19
2017-02-24T03:40:51.200Z,-4.19
2017-02-24T03:41:50.788Z,-4.27
2017-02-24T03:42:51.163Z,-4.33
2017-02-24T03:43:51.141Z,-4.26
2017-02-24T03:44:51.113Z,-4.16
2017-02-24T03:45:51.083Z,-4.13
2017-02-24T03:46:51.074Z,-4.1
2017-02-24T03:47:51.057Z,-4.16
2017-02-24T03:48:50.645Z,-4.23
2017-02-24T03:49:50.246Z,-4.22
2017-02-24T03:50:50.987Z,-4.16
2017-02-24T03:51:50.594Z,-4.17
2017-02-24T03:52:50.954Z,-4.31
2017-02-24T03:53:50.935Z,-4.31
2017-02-24T03:54:50.907Z,-4.27
2017-02-24T03:55:50.495Z,-4.1
2017-02-24T03:56:50.872Z,-4.12
2017-02-24T03:57:50.854Z,-4.07
2017-02-24T03:58:50.843Z,-4.1
2017-02-24T03:59:50.800Z,-4.16
2017-02-24T04:00:50.782Z,-4.26
2017-02-24T04:01:50.780Z,-4.46
2017-02-24T04:02:50.747Z,-4.63
2017-02-24T04:03:50.732Z,-4.7
2017-02-24T04:04:50.708Z,-4.87
2017-02-24T04:05:50.683Z,-4.9
2017-02-24T04:06:50.676Z,-4.93
2017-02-24T04:07:50.637Z,-5.12
2017-02-24T04:08:50.609Z,-5.16
2017-02-24T04:09:50.597Z,-5.33
2017-02-24T04:10:50.590Z,-5.35
2017-02-24T04:11:50.187Z,-5.46
2017-02-24T04:12:50.544Z,-5.53
2017-02-24T04:13:50.511Z,-5.63
2017-02-24T04:14:50.520Z,-5.52
2017-02-24T04:15:50.484Z,-5.45
2017-02-24T04:16:50.485Z,-5.48
2017-02-24T04:17:50.420Z,-5.66
2017-02-24T04:18:50.405Z,-5.88
2017-02-24T04:19:50.401Z,-5.88
2017-02-24T04:20:50.374Z,-5.96
2017-02-24T04:21:50.346Z,-5.98
2017-02-24T04:22:50.334Z,-6.06
2017-02-24T04:23:49.907Z,-6.1
2017-02-24T04:24:49.879Z,-6.06
2017-02-24T04:25:49.863Z,-6.08
2017-02-24T04:26:50.223Z,-6.09
2017-02-24T04:27:50.198Z,-6.13
2017-02-24T04:28:50.203Z,-6.32
2017-02-24T04:29:50.161Z,-6.38
2017-02-24T04:30:50.147Z,-6.48
2017-02-24T04:31:50.118Z,-6.45
2017-02-24T04:32:50.123Z,-6.45
2017-02-24T04:33:50.091Z,-6.45
2017-02-24T04:34:50.046Z,-6.56
2017-02-24T04:35:50.028Z,-6.5
2017-02-24T04:36:49.637Z,-6.53
2017-02-24T04:37:50.000Z,-6.53
2017-02-24T04:38:49.989Z,-6.66
2017-02-24T04:39:49.948Z,-6.64
2017-02-24T04:40:49.929Z,-6.67
2017-02-24T04:41:49.912Z,-6.61
2017-02-24T04:42:49.881Z,-6.67
2017-02-24T04:43:49.850Z,-6.75
2017-02-24T04:44:49.858Z,-6.75
2017-02-24T04:45:49.825Z,-6.77
2017-02-24T04:46:49.786Z,-6.81
2017-02-24T04:47:49.777Z,-6.85
2017-02-24T04:48:49.766Z,-6.89
2017-02-24T04:49:49.718Z,-6.92
2017-02-24T04:50:49.693Z,-6.92
2017-02-24T04:51:49.667Z,-6.84
2017-02-24T04:52:49.649Z,-6.9
2017-02-24T04:53:49.628Z,-6.85
2017-02-24T04:54:49.638Z,-6.9
2017-02-24T04:55:49.592Z,-6.87
2017-02-24T04:56:49.551Z,-6.79
2017-02-24T04:57:49.536Z,-6.81
2017-02-24T04:58:49.527Z,-6.81
2017-02-24T04:59:49.496Z,-6.77
2017-02-24T05:00:49.485Z,-6.81
2017-02-24T05:01:49.456Z,-6.81
2017-02-24T05:02:49.442Z,-6.77
2017-02-24T05:03:49.418Z,-6.69
2017-02-24T05:04:49.368Z,-6.72
2017-02-24T05:05:49.381Z,-6.77
2017-02-24T05:06:49.353Z,-6.71
2017-02-24T05:07:49.304Z,-6.63
2017-02-24T05:08:49.300Z,-6.66
2017-02-24T05:09:49.276Z,-6.69
2017-02-24T05:10:49.236Z,-6.87
2017-02-24T05:11:49.210Z,-6.92
2017-02-24T05:12:49.200Z,-6.93
2017-02-24T05:13:49.192Z,-6.96
2017-02-24T05:14:49.149Z,-6.89
2017-02-24T05:15:49.134Z,-6.95
2017-02-24T05:16:49.146Z,-6.96
2017-02-24T05:17:49.093Z,-6.96
2017-02-24T05:18:49.073Z,-7
2017-02-24T05:19:49.030Z,-7.1
2017-02-24T05:20:49.035Z,-7.2
2017-02-24T05:21:48.986Z,-7.29
2017-02-24T05:22:48.595Z,-7.24
2017-02-24T05:23:48.956Z,-7.27
2017-02-24T05:24:48.938Z,-7.24
2017-02-24T05:25:48.912Z,-7.17
2017-02-24T05:26:48.899Z,-7.29
2017-02-24T05:27:48.874Z,-7.35
2017-02-24T05:28:48.846Z,-7.42
2017-02-24T05:29:48.820Z,-7.42
2017-02-24T05:30:48.817Z,-7.47
2017-02-24T05:31:48.768Z,-7.34
2017-02-24T05:32:48.759Z,-7.34
2017-02-24T05:33:48.741Z,-7.42
2017-02-24T05:34:48.712Z,-7.53
2017-02-24T05:35:48.692Z,-7.42
2017-02-24T05:36:48.680Z,-7.47
2017-02-24T05:37:48.630Z,-7.47
2017-02-24T05:38:48.593Z,-7.59
2017-02-24T05:39:48.579Z,-7.53
2017-02-24T05:40:48.176Z,-7.64
2017-02-24T05:41:48.528Z,-7.6
2017-02-24T05:42:48.511Z,-7.68
2017-02-24T05:43:48.510Z,-7.74
2017-02-24T05:44:48.087Z,-7.96
2017-02-24T05:45:48.062Z,-7.98
2017-02-24T05:46:48.038Z,-7.87
2017-02-24T05:47:48.040Z,-7.89
2017-02-24T05:48:48.392Z,-7.96
2017-02-24T05:49:48.366Z,-8.1
2017-02-24T05:50:47.983Z,-8.08
2017-02-24T05:51:48.310Z,-8.16
2017-02-24T05:52:48.277Z,-8.06
2017-02-24T05:53:47.890Z,-8.04
2017-02-24T05:54:47.868Z,-8.07
2017-02-24T05:55:48.230Z,-8.14
2017-02-24T05:56:48.189Z,-8.21
2017-02-24T05:57:48.175Z,-8.17
2017-02-24T05:58:48.146Z,-8.22
2017-02-24T05:59:48.121Z,-8.24
2017-02-24T06:00:48.096Z,-8.24
2017-02-24T06:01:48.076Z,-8.28
2017-02-24T06:02:48.062Z,-8.31
2017-02-24T06:03:48.038Z,-8.25
2017-02-24T06:04:47.999Z,-8.27
2017-02-24T06:05:47.997Z,-8.29
2017-02-24T06:06:47.962Z,-8.27
2017-02-24T06:07:47.936Z,-8.35
2017-02-24T06:08:47.911Z,-8.4
2017-02-24T06:09:47.868Z,-8.42
2017-02-24T06:10:47.880Z,-8.4
2017-02-24T06:11:47.845Z,-8.39
2017-02-24T06:12:47.808Z,-8.39
2017-02-24T06:13:47.808Z,-8.4
2017-02-24T06:14:47.748Z,-8.46
2017-02-24T06:15:47.743Z,-8.4
2017-02-24T06:16:47.701Z,-8.49
2017-02-24T06:17:47.675Z,-8.52
2017-02-24T06:18:47.657Z,-8.53
2017-02-24T06:19:47.645Z,-8.5
2017-02-24T06:20:47.612Z,-8.46
2017-02-24T06:21:47.582Z,-8.52
2017-02-24T06:22:47.576Z,-8.55
2017-02-24T06:23:47.550Z,-8.52
2017-02-24T06:24:47.136Z,-8.5
2017-02-24T06:25:47.508Z,-8.56
2017-02-24T06:26:47.462Z,-8.5
2017-02-24T06:27:47.455Z,-8.49
2017-02-24T06:28:47.426Z,-8.55
2017-02-24T06:29:46.997Z,-8.58
2017-02-24T06:30:47.354Z,-8.56
2017-02-24T06:31:47.332Z,-8.55
2017-02-24T06:32:47.317Z,-8.5
2017-02-24T06:33:47.302Z,-8.58
2017-02-24T06:34:46.868Z,-8.52
2017-02-24T06:35:47.253Z,-8.53
2017-02-24T06:36:47.217Z,-8.53
2017-02-24T06:37:47.196Z,-8.56
2017-02-24T06:38:47.223Z,-8.53
2017-02-24T06:39:47.146Z,-8.52
2017-02-24T06:40:47.119Z,-8.56
2017-02-24T06:41:47.109Z,-8.55
2017-02-24T06:42:47.064Z,-8.63
2017-02-24T06:43:47.073Z,-8.58
2017-02-24T06:44:47.037Z,-8.63
2017-02-24T06:45:47.015Z,-8.61
2017-02-24T06:46:47.007Z,-8.67
2017-02-24T06:47:46.964Z,-8.52
2017-02-24T06:48:46.949Z,-8.63
2017-02-24T06:49:46.917Z,-8.68
2017-02-24T06:50:46.875Z,-8.49
2017-02-24T06:51:46.852Z,-8.52
2017-02-24T06:52:46.836Z,-8.71
2017-02-24T06:53:46.789Z,-8.6
2017-02-24T06:54:46.785Z,-8.6
2017-02-24T06:55:46.772Z,-8.68
2017-02-24T06:56:46.730Z,-8.63
2017-02-24T06:57:46.703Z,-8.67
2017-02-24T06:58:46.687Z,-8.67
2017-02-24T06:59:46.658Z,-8.52
2017-02-24T07:00:46.633Z,-8.55
2017-02-24T07:01:46.625Z,-8.52
2017-02-24T07:02:46.220Z,-8.49
2017-02-24T07:03:46.571Z,-8.55
2017-02-24T07:04:46.537Z,-8.61
2017-02-24T07:05:46.512Z,-8.56
2017-02-24T07:06:46.506Z,-8.66
2017-02-24T07:07:46.489Z,-8.61
2017-02-24T07:08:46.435Z,-8.56
2017-02-24T07:09:46.407Z,-8.61
2017-02-24T07:10:46.407Z,-8.56
2017-02-24T07:11:46.376Z,-8.55
2017-02-24T07:12:46.355Z,-8.55
2017-02-24T07:13:46.322Z,-8.56
2017-02-24T07:14:46.313Z,-8.63
2017-02-24T07:15:46.278Z,-8.52
2017-02-24T07:16:46.254Z,-8.56
2017-02-24T07:17:46.222Z,-8.64
2017-02-24T07:18:46.201Z,-8.55
2017-02-24T07:19:46.172Z,-8.67
2017-02-24T07:20:46.203Z,-8.66
2017-02-24T07:21:46.139Z,-8.6
2017-02-24T07:22:46.126Z,-8.73
2017-02-24T07:23:46.066Z,-8.73
2017-02-24T07:24:45.686Z,-8.71
2017-02-24T07:25:45.674Z,-8.55
2017-02-24T07:26:46.023Z,-8.6
2017-02-24T07:27:45.989Z,-8.66
2017-02-24T07:28:45.573Z,-8.64
2017-02-24T07:29:45.929Z,-8.7
2017-02-24T07:30:45.521Z,-8.68
2017-02-24T07:31:45.883Z,-8.63
2017-02-24T07:32:45.861Z,-8.74
2017-02-24T07:33:45.836Z,-8.73
2017-02-24T07:34:45.826Z,-8.7
2017-02-24T07:35:45.796Z,-8.79
2017-02-24T07:36:45.778Z,-8.7
2017-02-24T07:37:45.746Z,-8.68
2017-02-24T07:38:45.706Z,-8.68
2017-02-24T07:39:45.690Z,-8.67
2017-02-24T07:40:45.682Z,-8.67
2017-02-24T07:41:45.629Z,-8.66
2017-02-24T07:42:45.627Z,-8.66
2017-02-24T07:43:45.591Z,-8.63
2017-02-24T07:44:45.560Z,-8.52
2017-02-24T07:45:45.530Z,-8.63
2017-02-24T07:46:45.543Z,-8.63
2017-02-24T07:47:45.487Z,-8.53
2017-02-24T07:48:45.482Z,-8.61
2017-02-24T07:49:45.446Z,-8.63
2017-02-24T07:50:45.414Z,-8.55
2017-02-24T07:51:45.399Z,-8.43
2017-02-24T07:52:45.378Z,-8.5
2017-02-24T07:53:45.343Z,-8.58
2017-02-24T07:54:45.325Z,-8.6
2017-02-24T07:55:45.319Z,-8.6
2017-02-24T07:56:45.323Z,-8.7
2017-02-24T07:57:45.251Z,-8.71
2017-02-24T07:58:45.218Z,-8.6
2017-02-24T07:59:44.438Z,-8.46
2017-02-24T08:00:45.187Z,-8.56
2017-02-24T08:01:45.143Z,-8.53
2017-02-24T08:02:44.744Z,-8.61
2017-02-24T08:03:45.119Z,-8.56
2017-02-24T08:04:44.713Z,-8.66
2017-02-24T08:05:45.066Z,-8.53
2017-02-24T08:06:45.047Z,-8.58
2017-02-24T08:07:45.043Z,-8.67
2017-02-24T08:08:44.996Z,-8.61
2017-02-24T08:09:44.942Z,-8.66
2017-02-24T08:10:44.933Z,-8.64
2017-02-24T08:11:44.904Z,-8.63
2017-02-24T08:12:44.900Z,-8.61
2017-02-24T08:13:44.863Z,-8.74
2017-02-24T08:14:44.849Z,-8.63
2017-02-24T08:15:44.825Z,-8.63
2017-02-24T08:16:44.793Z,-8.71
2017-02-24T08:17:44.761Z,-8.53
2017-02-24T08:18:44.748Z,-8.49
2017-02-24T08:19:44.720Z,-8.28
2017-02-24T08:20:44.709Z,-8.18
2017-02-24T08:21:44.656Z,-8.21
2017-02-24T08:22:44.627Z,-8.17
2017-02-24T08:23:44.599Z,-8.17
2017-02-24T08:24:44.593Z,-8.13
2017-02-24T08:25:44.558Z,-8.13
2017-02-24T08:26:44.551Z,-8.16
2017-02-24T08:27:44.509Z,-8.06
2017-02-24T08:28:44.498Z,-8.08
2017-02-24T08:29:44.077Z,-8.03
2017-02-24T08:30:44.438Z,-8.06
2017-02-24T08:31:44.420Z,-8.06
2017-02-24T08:32:44.411Z,-7.99
2017-02-24T08:33:44.365Z,-7.98
2017-02-24T08:34:44.343Z,-8.18
2017-02-24T08:35:44.334Z,-8.39
2017-02-24T08:36:44.341Z,-8.39
2017-02-24T08:37:43.898Z,-8.49
2017-02-24T08:38:44.256Z,-8.47
2017-02-24T08:39:44.251Z,-8.46
2017-02-24T08:40:44.208Z,-8.37
2017-02-24T08:41:44.185Z,-8.31
2017-02-24T08:42:44.164Z,-8.34
2017-02-24T08:43:44.131Z,-8.29
2017-02-24T08:44:44.138Z,-8.25
2017-02-24T08:45:44.087Z,-8.16
2017-02-24T08:46:43.684Z,-8.1
2017-02-24T08:47:44.050Z,-8.08
2017-02-24T08:48:44.012Z,-7.96
2017-02-24T08:49:43.994Z,-7.96
2017-02-24T08:50:43.994Z,-8.08
2017-02-24T08:51:43.959Z,-8.16
2017-02-24T08:52:43.548Z,-8.16
2017-02-24T08:53:43.901Z,-8.22
2017-02-24T08:54:43.866Z,-8.22
2017-02-24T08:55:43.840Z,-7.96
2017-02-24T08:56:43.832Z,-8.06
2017-02-24T08:57:43.796Z,-7.87
2017-02-24T08:58:43.793Z,-7.67
2017-02-24T08:59:43.761Z,-7.59
2017-02-24T09:00:43.719Z,-7.53
2017-02-24T09:01:43.696Z,-7.66
2017-02-24T09:02:43.689Z,-7.6
2017-02-24T09:03:43.685Z,-7.8
2017-02-24T09:04:43.637Z,-7.87
2017-02-24T09:05:43.597Z,-7.84
2017-02-24T09:06:43.584Z,-7.89
2017-02-24T09:07:43.582Z,-8.03
2017-02-24T09:08:43.564Z,-8.03
2017-02-24T09:09:43.515Z,-7.98
2017-02-24T09:10:43.515Z,-7.91
2017-02-24T09:11:43.472Z,-7.84
2017-02-24T09:12:43.444Z,-7.64
2017-02-24T09:13:43.422Z,-7.57
2017-02-24T09:14:43.397Z,-7.47
2017-02-24T09:15:43.386Z,-7.46
2017-02-24T09:16:43.347Z,-7.46
2017-02-24T09:17:43.312Z,-7.38
2017-02-24T09:18:43.302Z,-7.62
2017-02-24T09:19:43.279Z,-7.64
2017-02-24T09:20:43.269Z,-7.78
2017-02-24T09:21:43.240Z,-7.98
2017-02-24T09:22:43.213Z,-8.06
2017-02-24T09:23:43.205Z,-8.42
2017-02-24T09:24:43.153Z,-8.52
2017-02-24T09:25:43.136Z,-8.71
2017-02-24T09:26:43.108Z,-8.74
2017-02-24T09:27:43.121Z,-8.89
2017-02-24T09:28:43.098Z,-9.02
2017-02-24T09:29:43.037Z,-8.92
2017-02-24T09:30:43.023Z,-9.02
2017-02-24T09:31:42.612Z,-9.12
2017-02-24T09:32:42.990Z,-9.09
2017-02-24T09:33:42.951Z,-9.07
2017-02-24T09:34:42.948Z,-8.92
2017-02-24T09:35:42.508Z,-8.89
2017-02-24T09:36:42.492Z,-8.86
2017-02-24T09:37:42.840Z,-8.92
2017-02-24T09:38:42.458Z,-8.92
2017-02-24T09:39:42.424Z,-8.94
2017-02-24T09:40:42.401Z,-9.12
2017-02-24T09:41:42.372Z,-9.09
2017-02-24T09:42:42.338Z,-9.3
2017-02-24T09:43:42.333Z,-9.16
2017-02-24T09:44:42.687Z,-9.3
2017-02-24T09:45:42.656Z,-9.31
2017-02-24T09:46:42.610Z,-9.31
2017-02-24T09:47:42.600Z,-9.24
2017-02-24T09:48:42.584Z,-9.26
2017-02-24T09:49:42.560Z,-9.27
2017-02-24T09:50:42.536Z,-9.2
2017-02-24T09:51:42.489Z,-9.26
2017-02-24T09:52:42.484Z,-9.14
2017-02-24T09:53:42.467Z,-9.16
2017-02-24T09:54:42.423Z,-9.09
2017-02-24T09:55:42.386Z,-9.14
2017-02-24T09:56:42.387Z,-9.09
2017-02-24T09:57:42.340Z,-9.16
2017-02-24T09:58:42.316Z,-9.17
2017-02-24T09:59:42.317Z,-9.09
2017-02-24T10:00:42.261Z,-9.09
2017-02-24T10:01:42.259Z,-9.09
2017-02-24T10:02:42.222Z,-9.24
2017-02-24T10:03:42.195Z,-9.21
2017-02-24T10:04:42.183Z,-9.17
2017-02-24T10:05:42.176Z,-9.18
2017-02-24T10:06:42.139Z,-9.09
2017-02-24T10:07:42.088Z,-8.96
2017-02-24T10:08:42.071Z,-8.85
2017-02-24T10:09:42.050Z,-8.7
2017-02-24T10:10:42.029Z,-8.6
2017-02-24T10:11:42.024Z,-8.88
2017-02-24T10:12:41.998Z,-8.79
2017-02-24T10:13:41.965Z,-8.86
2017-02-24T10:14:41.917Z,-8.92
2017-02-24T10:15:41.913Z,-8.94
2017-02-24T10:16:41.940Z,-8.88
2017-02-24T10:17:41.870Z,-8.81
2017-02-24T10:18:41.862Z,-8.81
2017-02-24T10:19:41.815Z,-8.88
2017-02-24T10:20:41.770Z,-8.92
2017-02-24T10:21:41.760Z,-8.99
2017-02-24T10:22:41.714Z,-9.05
2017-02-24T10:23:41.692Z,-9.09
2017-02-24T10:24:41.680Z,-9.06
2017-02-24T10:25:41.682Z,-9
2017-02-24T10:26:41.656Z,-8.92
2017-02-24T10:27:41.619Z,-8.96
2017-02-24T10:28:41.575Z,-8.94
2017-02-24T10:29:41.176Z,-8.97
2017-02-24T10:30:41.526Z,-8.94
2017-02-24T10:31:41.522Z,-8.91
2017-02-24T10:32:41.470Z,-8.94
2017-02-24T10:33:41.453Z,-8.96
2017-02-24T10:34:41.418Z,-8.94
2017-02-24T10:35:41.413Z,-8.91
2017-02-24T10:36:41.385Z,-8.97
2017-02-24T10:37:41.375Z,-8.86
2017-02-24T10:38:41.328Z,-8.76
2017-02-24T10:39:41.339Z,-8.79
2017-02-24T10:40:41.294Z,-8.79
2017-02-24T10:41:41.250Z,-8.64
2017-02-24T10:42:41.237Z,-8.78
2017-02-24T10:43:41.232Z,-8.96
2017-02-24T10:44:41.195Z,-8.97
2017-02-24T10:45:40.790Z,-8.84
2017-02-24T10:46:41.133Z,-8.88
2017-02-24T10:47:41.123Z,-8.99
2017-02-24T10:48:41.088Z,-8.94
2017-02-24T10:49:41.084Z,-8.92
2017-02-24T10:50:40.662Z,-8.85
2017-02-24T10:51:41.018Z,-8.81
2017-02-24T10:52:41.016Z,-8.84
2017-02-24T10:53:40.976Z,-8.78
2017-02-24T10:54:40.944Z,-8.89
2017-02-24T10:55:40.947Z,-8.99
2017-02-24T10:56:40.896Z,-8.79
2017-02-24T10:57:40.504Z,-8.82
2017-02-24T10:58:40.845Z,-8.63
2017-02-24T10:59:40.824Z,-8.53
2017-02-24T11:00:40.402Z,-8.39
2017-02-24T11:01:40.414Z,-8.25
2017-02-24T11:02:40.760Z,-8.24
2017-02-24T11:03:40.748Z,-7.95
2017-02-24T11:04:40.703Z,-7.85
2017-02-24T11:05:40.691Z,-7.96
2017-02-24T11:06:40.671Z,-7.88
2017-02-24T11:07:40.641Z,-7.8
2017-02-24T11:08:40.603Z,-7.64
2017-02-24T11:09:40.600Z,-7.56
2017-02-24T11:10:40.571Z,-7.64
2017-02-24T11:11:40.543Z,-7.87
2017-02-24T11:12:40.520Z,-7.67
2017-02-24T11:13:40.518Z,-7.68
2017-02-24T11:14:40.466Z,-7.77
2017-02-24T11:15:40.438Z,-7.8
2017-02-24T11:16:40.437Z,-7.98
2017-02-24T11:17:40.400Z,-8.11
2017-02-24T11:18:40.370Z,-8.47
2017-02-24T11:19:40.359Z,-8.58
2017-02-24T11:20:40.323Z,-8.71
2017-02-24T11:21:40.300Z,-8.66
2017-02-24T11:22:40.288Z,-8.61
2017-02-24T11:23:40.250Z,-8.58
2017-02-24T11:24:40.431Z,-8.49
2017-02-24T11:25:40.204Z,-8.47
2017-02-24T11:26:40.194Z,-8.27
2017-02-24T11:27:40.182Z,-7.95
2017-02-24T11:28:40.166Z,-7.98
2017-02-24T11:29:40.104Z,-7.94
2017-02-24T11:30:39.889Z,-7.98
2017-02-24T11:31:40.058Z,-8.06
2017-02-24T11:32:40.065Z,-8.06
2017-02-24T11:33:40.027Z,-8.18
2017-02-24T11:34:39.989Z,-8.21
2017-02-24T11:35:39.995Z,-8.07
2017-02-24T11:36:39.950Z,-8.04
2017-02-24T11:37:39.912Z,-8.03
2017-02-24T11:38:39.892Z,-7.92
2017-02-24T11:39:39.880Z,-8.07
2017-02-24T11:40:39.853Z,-8.29
2017-02-24T11:41:39.838Z,-8.4
2017-02-24T11:42:39.796Z,-8.32
2017-02-24T11:43:39.776Z,-8.39
2017-02-24T11:44:39.756Z,-8.5
2017-02-24T11:45:39.735Z,-8.52
2017-02-24T11:46:39.706Z,-8.63
2017-02-24T11:47:39.671Z,-8.67
2017-02-24T11:48:39.649Z,-8.64
2017-02-24T11:49:39.624Z,-8.73
2017-02-24T11:50:39.605Z,-8.78
2017-02-24T11:51:39.400Z,-8.71
2017-02-24T11:52:39.544Z,-8.71
2017-02-24T11:53:39.519Z,-8.68
2017-02-24T11:54:39.513Z,-8.56
2017-02-24T11:55:39.493Z,-8.29
2017-02-24T11:56:39.466Z,-8.39
2017-02-24T11:57:39.419Z,-8.49
2017-02-24T11:58:39.403Z,-8.63
2017-02-24T11:59:39.372Z,-8.55
2017-02-24T12:00:39.373Z,-8.61
2017-02-24T12:01:39.567Z,-8.81
2017-02-24T12:02:52.704Z,-8.78
2017-02-24T12:03:39.297Z,-8.74
2017-02-24T12:04:39.276Z,-8.76
2017-02-24T12:05:39.246Z,-8.79
2017-02-24T12:06:39.235Z,-8.81
2017-02-24T12:07:39.187Z,-8.82
2017-02-24T12:08:39.180Z,-8.89
2017-02-24T12:09:39.135Z,-8.78
2017-02-24T12:10:39.116Z,-8.86
2017-02-24T12:11:39.074Z,-8.86
2017-02-24T12:12:39.063Z,-8.78
2017-02-24T12:13:39.057Z,-8.7
2017-02-24T12:14:39.004Z,-8.76
2017-02-24T12:15:39.007Z,-8.68
2017-02-24T12:16:38.965Z,-8.76
2017-02-24T12:17:38.957Z,-8.81
2017-02-24T12:18:38.932Z,-8.89
2017-02-24T12:19:38.886Z,-8.89
2017-02-24T12:20:38.877Z,-8.82
2017-02-24T12:21:38.856Z,-8.76
2017-02-24T12:22:38.825Z,-8.81
2017-02-24T12:23:38.795Z,-8.84
2017-02-24T12:24:38.780Z,-8.73
2017-02-24T12:25:38.780Z,-8.68
2017-02-24T12:26:38.702Z,-8.67
2017-02-24T12:27:38.890Z,-8.68
2017-02-24T12:28:38.502Z,-8.53
2017-02-24T12:29:38.638Z,-8.49
2017-02-24T12:30:38.621Z,-8.49
2017-02-24T12:31:38.590Z,-8.52
2017-02-24T12:32:38.774Z,-8.39
2017-02-24T12:33:38.764Z,-8.17
2017-02-24T12:34:38.546Z,-8.04
2017-02-24T12:35:38.486Z,-7.94
2017-02-24T12:36:38.470Z,-7.96
2017-02-24T12:37:38.666Z,-8.07
2017-02-24T12:38:38.637Z,-8.21
2017-02-24T12:39:38.391Z,-8.32
2017-02-24T12:40:38.394Z,-8.4
2017-02-24T12:41:38.343Z,-8.49
2017-02-24T12:42:38.310Z,-8.52
2017-02-24T12:43:38.309Z,-8.55
2017-02-24T12:44:38.296Z,-8.53
2017-02-24T12:45:38.265Z,-8.73
2017-02-24T12:46:38.230Z,-8.76
2017-02-24T12:47:38.189Z,-8.78
2017-02-24T12:48:38.166Z,-8.88
2017-02-24T12:49:37.766Z,-8.85
2017-02-24T12:50:38.140Z,-8.71
2017-02-24T12:51:38.099Z,-8.89
2017-02-24T12:52:38.086Z,-8.85
2017-02-24T12:53:38.052Z,-8.86
2017-02-24T12:54:38.038Z,-8.74
2017-02-24T12:55:38.012Z,-8.78